createdAt,value
2019-06-10T00:00:50.891Z,1.85
2019-06-10T00:03:20.649Z,2.10
2019-06-10T00:05:48.961Z,2.02
2019-06-10T00:08:17.369Z,2.17
2019-06-10T00:10:45.802Z,2.20
2019-06-10T00:13:14.196Z,2.20
2019-06-10T00:15:42.609Z,1.70
2019-06-10T00:18:34.082Z,1.90
2019-06-10T00:20:41.438Z,1.80
2019-06-10T00:23:12.237Z,2.05
2019-06-10T00:25:41.476Z,2.12
2019-06-10T00:28:11.923Z,1.72
2019-06-10T00:30:41.586Z,2.12
2019-06-10T00:33:12.613Z,2.27
2019-06-10T00:35:41.182Z,1.80
2019-06-10T00:38:13.939Z,2.25
2019-06-10T00:40:41.484Z,2.22
2019-06-10T00:43:13.114Z,2.10
2019-06-10T00:45:41.197Z,2.00
2019-06-10T00:48:21.344Z,1.95
2019-06-10T00:50:41.375Z,2.10
2019-06-10T00:53:14.251Z,1.72
2019-06-10T00:55:41.479Z,2.27
2019-06-10T00:58:13.648Z,1.95
2019-06-10T01:00:41.528Z,2.17
2019-06-10T01:03:14.598Z,2.20
2019-06-10T01:05:42.076Z,1.80
2019-06-10T01:08:15.028Z,2.50
2019-06-10T01:10:43.878Z,1.87
2019-06-10T01:13:13.212Z,1.65
2019-06-10T01:15:42.414Z,2.37
2019-06-10T01:18:28.724Z,1.98
2019-06-10T01:20:41.479Z,1.60
2019-06-10T01:23:12.001Z,2.10
2019-06-10T01:25:42.427Z,1.87
2019-06-10T01:28:12.554Z,2.00
2019-06-10T01:30:41.237Z,2.05
2019-06-10T01:33:11.431Z,2.33
2019-06-10T01:35:41.492Z,1.90
2019-06-10T01:38:10.711Z,1.90
2019-06-10T01:40:41.869Z,2.10
2019-06-10T01:43:13.230Z,2.10
2019-06-10T01:45:41.838Z,1.82
2019-06-10T01:48:13.109Z,2.27
2019-06-10T01:50:41.081Z,2.22
2019-06-10T01:53:12.676Z,1.98
2019-06-10T01:55:41.484Z,2.42
2019-06-10T01:58:10.684Z,2.15
2019-06-10T02:00:50.721Z,2.17
2019-06-10T02:03:23.741Z,2.80
2019-06-10T02:05:51.713Z,2.30
2019-06-10T02:08:22.162Z,2.10
2019-06-10T02:10:50.980Z,2.12
2019-06-10T02:13:32.424Z,2.17
2019-06-10T02:16:02.419Z,2.20
2019-06-10T02:18:31.981Z,2.00
2019-06-10T02:21:01.089Z,1.75
2019-06-10T02:23:31.582Z,2.65
2019-06-10T02:26:01.587Z,2.33
2019-06-10T02:28:31.671Z,2.15
2019-06-10T02:31:03.227Z,2.33
2019-06-10T02:33:36.142Z,2.10
2019-06-10T02:37:20.229Z,2.05
2019-06-10T02:39:46.238Z,1.82
2019-06-10T02:42:22.332Z,2.52
2019-06-10T02:44:49.466Z,2.60
2019-06-10T02:47:22.623Z,2.15
2019-06-10T02:50:01.526Z,3.22
2019-06-10T02:52:22.632Z,2.77
2019-06-10T02:54:48.906Z,2.65
2019-06-10T02:57:21.234Z,2.42
2019-06-10T02:59:48.445Z,2.77
2019-06-10T03:02:18.284Z,2.60
2019-06-10T03:04:46.985Z,2.90
2019-06-10T03:07:15.859Z,2.15
2019-06-10T03:09:44.039Z,2.52
2019-06-10T03:12:12.468Z,2.52
2019-06-10T03:14:42.261Z,2.67
2019-06-10T03:17:12.514Z,2.25
2019-06-10T03:19:47.874Z,2.20
2019-06-10T03:22:12.988Z,2.30
2019-06-10T03:24:42.147Z,2.20
2019-06-10T03:27:12.543Z,2.15
2019-06-10T03:29:42.127Z,2.62
2019-06-10T03:32:14.514Z,2.98
2019-06-10T03:34:46.085Z,3.10
2019-06-10T03:37:12.826Z,2.58
2019-06-10T03:39:42.683Z,2.80
2019-06-10T03:42:12.616Z,2.87
2019-06-10T03:44:43.077Z,3.50
2019-06-10T03:47:12.191Z,2.75
2019-06-10T03:49:49.878Z,3.00
2019-06-10T03:52:12.836Z,3.25
2019-06-10T03:54:43.291Z,4.35
2019-06-10T03:57:12.046Z,3.47
2019-06-10T03:59:42.200Z,3.52
2019-06-10T04:02:12.669Z,5.97
2019-06-10T04:04:42.820Z,3.60
2019-06-10T04:07:14.119Z,4.10
2019-06-10T04:09:42.528Z,3.00
2019-06-10T04:12:12.563Z,3.00
2019-06-10T04:14:41.984Z,2.77
2019-06-10T04:17:12.938Z,2.47
2019-06-10T04:19:42.082Z,2.92
2019-06-10T04:22:12.928Z,2.67
2019-06-10T04:24:42.994Z,2.75
2019-06-10T04:27:12.300Z,3.42
2019-06-10T04:29:42.214Z,2.55
2019-06-10T04:32:12.263Z,2.75
2019-06-10T04:34:42.721Z,3.10
2019-06-10T04:37:12.435Z,3.05
2019-06-10T04:39:42.633Z,2.87
2019-06-10T04:42:12.871Z,2.75
2019-06-10T04:44:42.309Z,3.08
2019-06-10T04:47:12.061Z,2.98
2019-06-10T04:49:42.695Z,3.22
2019-06-10T04:52:12.253Z,2.90
2019-06-10T04:54:42.138Z,2.42
2019-06-10T04:57:12.675Z,3.20
2019-06-10T04:59:42.892Z,3.05
2019-06-10T05:02:12.782Z,3.75
2019-06-10T05:04:42.649Z,3.33
2019-06-10T05:07:12.600Z,3.00
2019-06-10T05:09:42.245Z,3.60
2019-06-10T05:12:12.100Z,3.50
2019-06-10T05:14:43.106Z,2.83
2019-06-10T05:17:12.709Z,3.17
2019-06-10T05:19:42.806Z,2.87
2019-06-10T05:22:12.397Z,3.22
2019-06-10T05:24:42.391Z,2.80
2019-06-10T05:27:12.541Z,3.50
2019-06-10T05:29:42.184Z,2.80
2019-06-10T05:32:12.641Z,3.02
2019-06-10T05:34:43.513Z,3.25
2019-06-10T05:37:12.091Z,2.83
2019-06-10T05:39:42.424Z,3.42
2019-06-10T05:42:12.761Z,2.72
2019-06-10T05:44:42.948Z,2.67
2019-06-10T05:47:12.644Z,3.02
2019-06-10T05:49:43.062Z,2.33
2019-06-10T05:52:12.600Z,2.37
2019-06-10T05:54:43.097Z,2.22
2019-06-10T05:57:12.101Z,2.70
2019-06-10T05:59:43.142Z,2.52
2019-06-10T06:02:12.848Z,3.27
2019-06-10T06:04:42.843Z,2.70
2019-06-10T06:07:12.887Z,2.35
2019-06-10T06:09:42.685Z,2.92
2019-06-10T06:12:14.185Z,2.17
2019-06-10T06:14:42.565Z,2.60
2019-06-10T06:17:12.702Z,2.75
2019-06-10T06:19:43.335Z,2.80
2019-06-10T06:22:12.997Z,2.50
2019-06-10T06:24:42.787Z,2.35
2019-06-10T06:27:13.122Z,2.83
2019-06-10T06:29:43.201Z,2.98
2019-06-10T06:32:13.190Z,2.65
2019-06-10T06:34:43.111Z,2.60
2019-06-10T06:37:12.747Z,2.55
2019-06-10T06:39:42.921Z,2.00
2019-06-10T06:42:12.673Z,2.47
2019-06-10T06:44:43.313Z,2.52
2019-06-10T06:47:13.178Z,2.22
2019-06-10T06:49:42.570Z,2.22
2019-06-10T06:52:12.813Z,2.58
2019-06-10T06:54:42.479Z,2.47
2019-06-10T06:57:13.112Z,2.98
2019-06-10T06:59:43.208Z,2.65
2019-06-10T07:02:12.316Z,2.08
2019-06-10T07:04:43.159Z,2.10
2019-06-10T07:07:13.192Z,2.35
2019-06-10T07:09:43.574Z,2.60
2019-06-10T07:12:13.048Z,2.37
2019-06-10T07:14:45.111Z,2.52
2019-06-10T07:17:13.569Z,2.00
2019-06-10T07:19:45.652Z,2.33
2019-06-10T07:22:15.902Z,2.20
2019-06-10T07:24:47.356Z,2.45
2019-06-10T07:27:13.118Z,1.85
2019-06-10T07:29:47.021Z,2.37
2019-06-10T07:32:12.394Z,2.10
2019-06-10T07:34:44.135Z,2.30
2019-06-10T07:37:13.011Z,2.25
2019-06-10T07:39:44.005Z,2.67
2019-06-10T07:42:13.493Z,2.15
2019-06-10T07:44:43.590Z,2.40
2019-06-10T07:47:12.808Z,2.67
2019-06-10T07:49:43.944Z,2.35
2019-06-10T07:52:18.609Z,2.55
2019-06-10T07:54:43.723Z,3.02
2019-06-10T07:57:12.958Z,2.47
2019-06-10T07:59:44.497Z,2.47
2019-06-10T08:02:12.386Z,2.85
2019-06-10T08:04:44.135Z,3.02
2019-06-10T08:07:12.495Z,3.05
2019-06-10T08:09:43.853Z,3.50
2019-06-10T08:12:12.740Z,2.60
2019-06-10T08:14:42.754Z,2.72
2019-06-10T08:17:12.920Z,2.58
2019-06-10T08:19:47.093Z,2.22
2019-06-10T08:22:13.173Z,2.25
2019-06-10T08:24:43.708Z,2.30
2019-06-10T08:27:12.086Z,2.50
2019-06-10T08:29:41.621Z,2.30
2019-06-10T08:32:12.927Z,1.98
2019-06-10T08:34:44.617Z,1.57
2019-06-10T08:37:13.520Z,2.17
2019-06-10T08:39:43.138Z,1.60
2019-06-10T08:42:12.411Z,2.02
2019-06-10T08:44:43.520Z,2.15
2019-06-10T08:47:12.402Z,2.27
2019-06-10T08:49:44.281Z,2.00
2019-06-10T08:52:12.859Z,1.75
2019-06-10T08:54:45.657Z,1.90
2019-06-10T08:57:12.722Z,1.75
2019-06-10T08:59:45.632Z,2.15
2019-06-10T09:02:12.468Z,1.60
2019-06-10T09:04:44.863Z,1.45
2019-06-10T09:07:12.588Z,2.37
2019-06-10T09:09:43.765Z,1.90
2019-06-10T09:12:28.355Z,2.20
2019-06-10T09:14:42.695Z,2.12
2019-06-10T09:17:12.506Z,2.00
2019-06-10T09:19:43.667Z,1.70
2019-06-10T09:22:12.592Z,1.80
2019-06-10T09:24:42.666Z,1.77
2019-06-10T09:27:12.887Z,1.85
2019-06-10T09:29:41.651Z,1.95
2019-06-10T09:32:12.472Z,1.72
2019-06-10T09:34:43.051Z,1.80
2019-06-10T09:37:12.444Z,1.60
2019-06-10T09:39:43.729Z,1.62
2019-06-10T09:42:14.359Z,1.80
2019-06-10T09:44:45.114Z,1.70
2019-06-10T09:47:14.273Z,1.45
2019-06-10T09:49:45.573Z,1.77
2019-06-10T09:52:13.460Z,1.65
2019-06-10T09:55:02.803Z,1.70
2019-06-10T09:57:32.178Z,2.08
2019-06-10T10:00:03.407Z,1.52
2019-06-10T10:02:33.181Z,1.70
2019-06-10T10:05:01.137Z,2.05
2019-06-10T10:07:32.410Z,2.60
2019-06-10T10:10:04.171Z,2.90
2019-06-10T10:12:32.701Z,3.08
2019-06-10T10:15:22.064Z,2.98
2019-06-10T10:17:33.420Z,2.80
2019-06-10T10:20:03.221Z,2.87
2019-06-10T10:22:34.065Z,3.47
2019-06-10T10:25:02.970Z,2.70
2019-06-10T10:27:34.842Z,3.05
2019-06-10T10:30:05.098Z,3.37
2019-06-10T10:32:33.461Z,3.75
2019-06-10T10:35:03.051Z,2.98
2019-06-10T10:37:32.731Z,3.40
2019-06-10T10:40:03.267Z,3.02
2019-06-10T10:42:42.688Z,3.55
2019-06-10T10:45:02.734Z,2.72
2019-06-10T10:47:33.559Z,2.65
2019-06-10T10:50:02.862Z,2.67
2019-06-10T10:52:33.088Z,2.92
2019-06-10T10:55:06.653Z,2.92
2019-06-10T10:57:33.060Z,2.40
2019-06-10T11:00:03.165Z,3.62
2019-06-10T11:02:32.179Z,2.70
2019-06-10T11:05:01.100Z,3.50
2019-06-10T11:07:29.240Z,2.95
2019-06-10T11:09:57.358Z,2.62
2019-06-10T11:12:26.851Z,3.80
2019-06-10T11:15:00.455Z,4.12
2019-06-10T11:17:25.821Z,4.17
2019-06-10T11:19:55.960Z,3.95
2019-06-10T11:22:24.216Z,3.35
2019-06-10T11:24:54.420Z,3.72
2019-06-10T11:27:22.817Z,4.40
2019-06-10T11:29:53.641Z,3.33
2019-06-10T11:32:21.406Z,4.20
2019-06-10T11:34:50.181Z,4.08
2019-06-10T11:37:18.246Z,3.80
2019-06-10T11:39:46.673Z,3.35
2019-06-10T11:42:15.072Z,3.45
2019-06-10T11:44:43.157Z,3.40
2019-06-10T11:47:13.128Z,3.52
2019-06-10T11:49:43.398Z,3.60
2019-06-10T11:52:12.585Z,3.25
2019-06-10T11:54:51.697Z,4.08
2019-06-10T11:57:12.520Z,3.22
2019-06-10T11:59:43.273Z,3.98
2019-06-10T12:02:13.305Z,3.45
2019-06-10T12:04:41.344Z,4.10
2019-06-10T12:07:09.758Z,3.72
2019-06-10T12:09:38.170Z,3.80
2019-06-10T12:12:06.591Z,4.20
2019-06-10T12:14:34.989Z,4.62
2019-06-10T12:17:35.209Z,3.47
2019-06-10T12:19:34.089Z,4.53
2019-06-10T12:22:07.103Z,3.87
2019-06-10T12:24:33.896Z,4.47
2019-06-10T12:27:05.058Z,4.08
2019-06-10T12:29:32.400Z,3.80
2019-06-10T12:32:05.753Z,4.50
2019-06-10T12:34:33.268Z,4.17
2019-06-10T12:37:10.052Z,4.47
2019-06-10T12:39:31.192Z,4.05
2019-06-10T12:42:01.505Z,5.08
2019-06-10T12:44:29.838Z,5.28
2019-06-10T12:47:03.781Z,4.28
2019-06-10T12:49:29.458Z,4.10
2019-06-10T12:51:59.165Z,5.05
2019-06-10T12:54:27.757Z,3.77
2019-06-10T12:56:56.653Z,3.90
2019-06-10T12:59:27.089Z,4.72
2019-06-10T13:01:55.923Z,4.40
2019-06-10T13:04:24.922Z,4.25
2019-06-10T13:06:53.317Z,3.75
2019-06-10T13:09:23.585Z,4.30
2019-06-10T13:11:53.244Z,3.40
2019-06-10T13:14:22.108Z,4.08
2019-06-10T13:16:52.689Z,2.35
2019-06-10T13:19:23.003Z,2.67
2019-06-10T13:21:52.798Z,2.67
2019-06-10T13:24:22.440Z,2.85
2019-06-10T13:26:52.374Z,2.90
2019-06-10T13:29:20.596Z,3.12
2019-06-10T13:31:48.672Z,2.72
2019-06-10T13:34:17.125Z,2.65
2019-06-10T13:36:45.213Z,3.22
2019-06-10T13:39:13.698Z,3.15
2019-06-10T13:41:43.770Z,2.33
2019-06-10T13:44:16.551Z,2.37
2019-06-10T13:46:42.508Z,2.47
2019-06-10T13:49:13.131Z,2.05
2019-06-10T13:52:05.132Z,2.22
2019-06-10T13:54:30.840Z,1.87
2019-06-10T13:56:59.257Z,1.70
2019-06-10T13:59:27.333Z,1.62
2019-06-10T14:01:55.774Z,1.80
2019-06-10T14:04:25.798Z,1.77
2019-06-10T14:06:57.218Z,2.12
2019-06-10T14:09:24.299Z,1.90
2019-06-10T14:11:52.979Z,2.92
2019-06-10T14:14:23.023Z,2.22
2019-06-10T14:16:53.892Z,1.80
2019-06-10T14:19:23.309Z,1.95
2019-06-10T14:21:51.771Z,2.20
2019-06-10T14:24:22.547Z,1.90
2019-06-10T14:26:49.972Z,1.95
2019-06-10T14:29:37.747Z,2.33
2019-06-10T14:32:07.351Z,2.05
2019-06-10T14:34:36.049Z,2.75
2019-06-10T14:37:05.766Z,2.22
2019-06-10T14:39:36.356Z,2.62
2019-06-10T14:42:06.853Z,1.92
2019-06-10T14:44:35.184Z,2.55
2019-06-10T14:47:04.518Z,2.92
2019-06-10T14:49:33.204Z,2.52
2019-06-10T14:52:02.784Z,2.95
2019-06-10T14:54:32.273Z,3.02
2019-06-10T14:57:02.656Z,2.22
2019-06-10T14:59:30.987Z,2.42
2019-06-10T15:01:59.389Z,2.42
2019-06-10T15:04:27.839Z,5.20
2019-06-10T15:06:55.962Z,3.02
2019-06-10T15:09:24.380Z,3.00
2019-06-10T15:11:52.863Z,3.30
2019-06-10T15:14:23.130Z,2.52
2019-06-10T15:16:53.149Z,2.90
2019-06-10T15:19:26.338Z,3.02
2019-06-10T15:21:52.357Z,2.92
2019-06-10T15:24:23.525Z,2.75
2019-06-10T15:27:07.945Z,2.40
2019-06-10T15:29:23.340Z,3.10
2019-06-10T15:32:05.975Z,2.80
2019-06-10T15:34:21.300Z,2.83
2019-06-10T15:36:49.368Z,2.45
2019-06-10T15:39:19.628Z,3.15
2019-06-10T15:41:47.945Z,3.12
2019-06-10T15:44:48.554Z,2.65
2019-06-10T15:47:05.519Z,3.77
2019-06-10T15:49:33.651Z,1.80
2019-06-10T15:52:03.322Z,0.90
2019-06-10T15:54:33.263Z,0.60
2019-06-10T15:57:03.148Z,0.33
2019-06-10T15:59:31.831Z,0.30
2019-06-10T16:02:02.407Z,0.20
2019-06-10T16:04:34.889Z,0.20
2019-06-10T16:07:02.538Z,0.30
2019-06-10T16:09:32.126Z,0.30
2019-06-10T16:12:02.988Z,0.20
2019-06-10T16:14:33.205Z,0.37
2019-06-10T16:17:03.131Z,0.90
2019-06-10T16:19:32.893Z,0.80
2019-06-10T16:22:03.194Z,0.80
2019-06-10T16:24:33.228Z,1.07
2019-06-10T16:27:03.370Z,2.37
2019-06-10T16:29:33.373Z,1.77
2019-06-10T16:32:02.600Z,2.40
2019-06-10T16:34:35.357Z,1.60
2019-06-10T16:37:04.322Z,1.52
2019-06-10T16:39:32.789Z,2.52
2019-06-10T16:42:02.843Z,2.50
2019-06-10T16:44:32.802Z,2.10
2019-06-10T16:47:03.033Z,2.20
2019-06-10T16:49:32.678Z,1.80
2019-06-10T16:52:02.953Z,2.00
2019-06-10T16:54:32.973Z,2.77
2019-06-10T16:57:03.744Z,2.00
2019-06-10T16:59:32.996Z,1.87
2019-06-10T17:02:02.263Z,2.02
2019-06-10T17:04:32.944Z,1.92
2019-06-10T17:07:02.200Z,2.10
2019-06-10T17:09:32.890Z,6.62
2019-06-10T17:12:02.245Z,2.58
2019-06-10T17:14:33.634Z,1.70
2019-06-10T17:17:03.651Z,2.27
2019-06-10T17:19:33.405Z,2.05
2019-06-10T17:22:01.720Z,1.90
2019-06-10T17:24:31.397Z,2.25
2019-06-10T17:27:02.478Z,3.98
2019-06-10T17:29:30.639Z,4.35
2019-06-10T17:31:59.772Z,1.65
2019-06-10T17:34:29.679Z,1.82
2019-06-10T17:36:58.317Z,1.50
2019-06-10T17:39:28.324Z,2.42
2019-06-10T17:41:56.869Z,1.52
2019-06-10T17:44:28.745Z,1.45
2019-06-10T17:46:55.103Z,0.98
2019-06-10T17:49:25.415Z,1.75
2019-06-10T17:51:53.660Z,1.10
2019-06-10T17:54:23.529Z,1.57
2019-06-10T17:56:52.200Z,1.20
2019-06-10T17:59:22.444Z,1.15
2019-06-10T18:01:52.394Z,0.98
2019-06-10T18:04:22.648Z,1.00
2019-06-10T18:06:52.933Z,1.22
2019-06-10T18:09:23.162Z,1.62
2019-06-10T18:11:50.942Z,1.07
2019-06-10T18:14:19.010Z,1.42
2019-06-10T18:16:47.109Z,1.67
2019-06-10T18:19:15.181Z,2.90
2019-06-10T18:21:43.647Z,1.92
2019-06-10T18:24:12.786Z,2.75
2019-06-10T18:26:42.382Z,2.42
2019-06-10T18:29:12.877Z,2.47
2019-06-10T18:31:42.721Z,6.03
2019-06-10T18:34:13.188Z,6.40
2019-06-10T18:36:42.751Z,4.50
2019-06-10T18:39:12.340Z,3.75
2019-06-10T18:41:41.844Z,4.72
2019-06-10T18:44:19.783Z,2.15
2019-06-10T18:46:43.047Z,4.95
2019-06-10T18:49:13.116Z,6.83
2019-06-10T18:51:43.222Z,3.27
2019-06-10T18:54:12.840Z,2.40
2019-06-10T18:56:42.892Z,2.25
2019-06-10T18:59:19.719Z,1.62
2019-06-10T19:01:42.386Z,1.82
2019-06-10T19:04:12.845Z,1.45
2019-06-10T19:06:42.944Z,1.77
2019-06-10T19:09:12.772Z,1.87
2019-06-10T19:11:43.126Z,2.15
2019-06-10T19:14:12.802Z,1.98
2019-06-10T19:16:42.986Z,2.00
2019-06-10T19:19:12.712Z,2.42
2019-06-10T19:21:43.600Z,2.00
2019-06-10T19:24:12.950Z,1.80
2019-06-10T19:26:44.861Z,1.67
2019-06-10T19:29:14.863Z,2.05
2019-06-10T19:31:45.604Z,3.40
2019-06-10T19:34:13.233Z,2.20
2019-06-10T19:36:41.967Z,1.85
2019-06-10T19:39:13.000Z,1.82
2019-06-10T19:41:45.864Z,2.47
2019-06-10T19:44:12.858Z,1.72
2019-06-10T19:46:42.819Z,1.30
2019-06-10T19:49:13.152Z,1.65
2019-06-10T19:51:43.561Z,1.85
2019-06-10T19:54:12.787Z,1.55
2019-06-10T19:56:41.729Z,1.87
2019-06-10T19:59:12.565Z,1.60
2019-06-10T20:01:41.886Z,1.85
2019-06-10T20:04:10.477Z,1.72
2019-06-10T20:06:42.228Z,2.25
2019-06-10T20:09:09.837Z,2.62
2019-06-10T20:11:38.403Z,1.55
2019-06-10T20:14:07.152Z,1.82
2019-06-10T20:16:35.686Z,1.57
2019-06-10T20:19:05.013Z,1.75
2019-06-10T20:21:33.437Z,10.90
2019-06-10T20:24:02.701Z,11.25
2019-06-10T20:26:32.897Z,9.70
2019-06-10T20:29:03.846Z,8.13
2019-06-10T20:31:32.559Z,9.15
2019-06-10T20:34:02.657Z,8.23
2019-06-10T20:36:33.389Z,14.10
2019-06-10T20:39:01.619Z,10.78
2019-06-10T20:41:30.020Z,8.05
2019-06-10T20:43:58.466Z,13.20
2019-06-10T20:46:26.877Z,11.00
2019-06-10T20:48:55.473Z,9.23
2019-06-10T20:51:27.100Z,5.97
2019-06-10T20:53:54.041Z,8.05
2019-06-10T20:56:23.298Z,7.62
2019-06-10T20:58:52.463Z,5.25
2019-06-10T21:01:25.239Z,4.03
2019-06-10T21:03:53.988Z,3.10
2019-06-10T21:06:22.553Z,2.25
2019-06-10T21:08:53.365Z,2.50
2019-06-10T21:11:23.051Z,2.87
2019-06-10T21:13:53.141Z,3.27
2019-06-10T21:16:22.950Z,3.17
2019-06-10T21:18:55.561Z,3.65
2019-06-10T21:21:22.693Z,2.37
2019-06-10T21:23:53.903Z,1.60
2019-06-10T21:26:23.529Z,1.60
2019-06-10T21:28:54.920Z,1.70
2019-06-10T21:31:21.763Z,1.75
2019-06-10T21:33:51.791Z,1.87
2019-06-10T21:36:22.838Z,2.00
2019-06-10T21:38:51.857Z,1.70
2019-06-10T21:41:22.589Z,2.05
2019-06-10T21:43:57.571Z,1.70
2019-06-10T21:46:22.639Z,1.60
2019-06-10T21:48:50.660Z,1.50
2019-06-10T21:51:19.070Z,1.77
2019-06-10T21:53:48.544Z,1.75
2019-06-10T21:56:17.078Z,1.70
2019-06-10T21:58:46.800Z,1.57
2019-06-10T22:01:17.078Z,1.70
2019-06-10T22:03:51.930Z,1.82
2019-06-10T22:06:16.120Z,1.50
2019-06-10T22:08:45.712Z,1.52
2019-06-10T22:11:13.976Z,1.85
2019-06-10T22:13:42.381Z,1.82
2019-06-10T22:16:10.858Z,1.92
2019-06-10T22:18:39.273Z,2.00
2019-06-10T22:21:07.680Z,1.72
2019-06-10T22:23:36.092Z,1.80
2019-06-10T22:26:04.500Z,1.87
2019-06-10T22:28:32.941Z,2.30
2019-06-10T22:31:17.202Z,2.33
2019-06-10T22:33:31.535Z,1.82
2019-06-10T22:36:02.191Z,2.10
2019-06-10T22:38:29.744Z,1.92
2019-06-10T22:40:59.296Z,2.50
2019-06-10T22:43:27.824Z,1.70
2019-06-10T22:45:57.276Z,2.25
2019-06-10T22:48:25.934Z,2.00
2019-06-10T22:50:55.431Z,2.45
2019-06-10T22:53:23.831Z,2.55
2019-06-10T22:55:53.479Z,2.60
2019-06-10T22:58:23.774Z,2.50
2019-06-10T23:01:12.457Z,2.35
2019-06-10T23:03:41.198Z,3.00
2019-06-10T23:06:09.599Z,3.05
2019-06-10T23:08:38.029Z,2.92
2019-06-10T23:11:06.425Z,3.22
2019-06-10T23:13:34.840Z,2.85
2019-06-10T23:16:03.246Z,3.77
2019-06-10T23:18:32.072Z,3.35
2019-06-10T23:21:01.588Z,2.90
2019-06-10T23:23:32.604Z,3.55
2019-06-10T23:26:02.978Z,3.50
2019-06-10T23:28:32.690Z,3.95
2019-06-10T23:31:02.436Z,4.12
2019-06-10T23:33:32.397Z,3.80
2019-06-10T23:36:03.721Z,4.15
2019-06-10T23:38:32.887Z,3.90
2019-06-10T23:41:03.565Z,4.25
2019-06-10T23:43:32.990Z,4.70
2019-06-10T23:46:04.108Z,4.33
2019-06-10T23:48:32.965Z,4.37
2019-06-10T23:51:04.754Z,4.30
2019-06-10T23:53:32.820Z,3.98
2019-06-10T23:56:04.705Z,4.25
2019-06-10T23:58:32.902Z,4.40
